Terminal Aerodrome Forecast
Issued by NWS Paducah, KY

Home | Current Version | Previous Version | Graphics & Text | Print | Product List | Glossary On
Versions: 1 2 3 4 5 6 7 8 9 10 11 12 13 14 15 16
640
FTUS43 KPAH 232124 AAA
TAFEVV
TAF AMD
KEVV 232124Z 2321/2418 07009KT P6SM VCSH SCT027 BKN035
      TEMPO 2321/2401 4SM SHRA BKN027
     FM240100 07005KT P6SM OVC060
      TEMPO 2401/2403 4SM -SHRA OVC025
     FM240300 02005KT P6SM OVC020 PROB30 2409/2415 2SM -RA BR
      OVC004=

USA.gov is the U.S. government's official web portal to all federal, state and local government web resources and services.